createdAt,value
2018-12-05T00:01:54.084Z,4.50
2018-12-05T00:04:26.993Z,4.33
2018-12-05T00:06:59.841Z,3.83
2018-12-05T00:09:32.716Z,4.37
2018-12-05T00:12:05.879Z,4.03
2018-12-05T00:14:38.766Z,4.03
2018-12-05T00:17:11.607Z,3.83
2018-12-05T00:19:44.488Z,3.50
2018-12-05T00:22:17.395Z,3.90
2018-12-05T00:24:50.324Z,4.17
2018-12-05T00:27:23.348Z,3.40
2018-12-05T00:29:56.139Z,4.00
2018-12-05T00:32:28.974Z,3.70
2018-12-05T00:35:01.764Z,3.90
2018-12-05T00:37:34.706Z,4.13
2018-12-05T00:40:07.573Z,4.43
2018-12-05T00:42:40.466Z,4.30
2018-12-05T00:45:13.525Z,4.50
2018-12-05T00:47:46.549Z,4.30
2018-12-05T00:50:19.483Z,5.33
2018-12-05T00:52:52.455Z,5.20
2018-12-05T00:55:25.418Z,5.13
2018-12-05T00:57:58.397Z,4.90
2018-12-05T01:00:31.326Z,4.90
2018-12-05T01:03:04.229Z,5.73
2018-12-05T01:05:37.197Z,4.53
2018-12-05T01:08:10.097Z,4.90
2018-12-05T01:10:43.053Z,5.67
2018-12-05T01:13:15.930Z,5.63
2018-12-05T01:15:49.088Z,4.87
2018-12-05T01:18:21.890Z,5.33
2018-12-05T01:20:54.919Z,6.27
2018-12-05T01:23:27.867Z,6.97
2018-12-05T01:26:00.880Z,6.73
2018-12-05T01:28:33.759Z,6.73
2018-12-05T01:31:06.745Z,6.27
2018-12-05T01:33:39.609Z,6.77
2018-12-05T01:36:12.624Z,6.83
2018-12-05T01:38:45.307Z,7.07
2018-12-05T01:41:18.097Z,7.27
2018-12-05T01:43:51.184Z,6.93
2018-12-05T01:46:24.218Z,7.30
2018-12-05T01:48:57.158Z,7.43
2018-12-05T01:51:30.132Z,7.53
2018-12-05T01:54:03.230Z,7.67
2018-12-05T01:56:36.259Z,7.10
2018-12-05T01:59:08.331Z,7.73
2018-12-05T02:01:41.406Z,9.23
2018-12-05T02:04:14.394Z,8.67
2018-12-05T02:06:47.407Z,7.50
2018-12-05T02:09:20.356Z,7.90
2018-12-05T02:11:53.339Z,8.27
2018-12-05T02:14:26.207Z,7.70
2018-12-05T02:16:59.135Z,7.27
2018-12-05T02:19:32.027Z,7.43
2018-12-05T02:22:04.957Z,7.13
2018-12-05T02:24:37.953Z,6.90
2018-12-05T02:27:10.896Z,6.43
2018-12-05T02:30:01.828Z,6.50
2018-12-05T02:32:34.709Z,6.53
2018-12-05T02:35:07.933Z,6.20
2018-12-05T02:37:40.735Z,6.13
2018-12-05T02:40:13.712Z,6.07
2018-12-05T02:42:46.717Z,6.37
2018-12-05T02:52:26.252Z,6.27
2018-12-05T02:55:00.025Z,6.20
2018-12-05T03:00:49.536Z,6.13
2018-12-05T03:03:41.476Z,6.00
2018-12-05T03:06:34.086Z,6.77
2018-12-05T03:09:45.818Z,6.13
2018-12-05T03:12:57.636Z,6.80
2018-12-05T03:16:08.328Z,6.87
2018-12-05T03:19:00.018Z,6.90
2018-12-05T03:21:52.170Z,6.60
2018-12-05T03:25:03.339Z,6.77
2018-12-05T03:27:55.126Z,7.50
2018-12-05T03:30:47.037Z,7.27
2018-12-05T03:36:55.207Z,7.23
2018-12-05T03:40:20.179Z,7.47
2018-12-05T03:43:19.177Z,7.13
2018-12-05T03:46:29.647Z,7.17
2018-12-05T03:49:22.896Z,7.00
2018-12-05T03:52:14.955Z,6.63
2018-12-05T03:55:25.106Z,6.83
2018-12-05T03:58:37.681Z,6.80
2018-12-05T04:01:30.750Z,6.97
2018-12-05T04:24:24.915Z,7.07
2018-12-05T04:31:05.565Z,7.33
2018-12-05T04:33:46.243Z,8.07
2018-12-05T04:39:34.864Z,7.83
2018-12-05T04:42:46.120Z,7.73
2018-12-05T04:45:57.411Z,9.03
2018-12-05T04:52:38.889Z,8.23
2018-12-05T04:58:47.824Z,8.50
2018-12-05T05:02:11.059Z,8.60
2018-12-05T05:31:28.084Z,8.03
2018-12-05T05:34:38.584Z,7.60
2018-12-05T05:57:06.142Z,7.67
2018-12-05T06:03:47.657Z,8.20
2018-12-05T06:06:57.612Z,7.93
2018-12-05T06:13:24.608Z,8.07
2018-12-05T06:23:34.089Z,8.37
2018-12-05T06:26:32.999Z,9.83
2018-12-05T06:32:59.249Z,10.77
2018-12-05T06:39:40.657Z,10.83
2018-12-05T06:42:51.144Z,13.63
2018-12-05T06:52:47.623Z,8.77
2018-12-05T06:56:15.343Z,8.53
2018-12-05T06:59:27.147Z,8.77
2018-12-05T07:09:48.045Z,8.00
2018-12-05T07:12:58.393Z,9.83
2018-12-05T07:19:42.817Z,9.10
2018-12-05T07:25:46.011Z,8.63
2018-12-05T07:32:26.887Z,8.77
2018-12-05T07:38:53.924Z,8.33
2018-12-05T07:42:04.775Z,8.93
2018-12-05T07:45:30.829Z,9.30
2018-12-05T07:51:38.789Z,8.67
2018-12-05T07:54:29.632Z,9.77
2018-12-05T07:57:22.347Z,10.10
2018-12-05T08:06:46.960Z,9.53
2018-12-05T08:10:15.714Z,9.27
2018-12-05T08:16:55.664Z,9.77
2018-12-05T08:29:56.158Z,9.97
2018-12-05T08:42:57.502Z,10.10
2018-12-05T08:46:08.567Z,9.70
2018-12-05T08:53:00.378Z,9.33
2018-12-05T09:02:33.526Z,10.37
2018-12-05T09:12:32.251Z,11.90
2018-12-05T09:15:43.404Z,11.93
2018-12-05T09:21:50.535Z,12.80
2018-12-05T09:28:30.980Z,12.97
2018-12-05T09:31:42.134Z,13.80
2018-12-05T09:34:52.928Z,14.13
2018-12-05T09:38:22.053Z,14.67
2018-12-05T09:44:05.923Z,14.57
2018-12-05T09:47:16.870Z,14.50
2018-12-05T09:53:38.429Z,13.70
2018-12-05T09:56:30.140Z,13.73
2018-12-05T09:59:40.678Z,13.53
2018-12-05T10:06:06.221Z,14.60
2018-12-05T10:09:18.177Z,14.00
2018-12-05T10:19:01.913Z,13.63
2018-12-05T10:28:39.602Z,13.93
2018-12-05T10:31:49.543Z,13.60
2018-12-05T10:34:41.668Z,13.13
2018-12-05T10:37:51.708Z,12.80
2018-12-05T10:41:01.693Z,12.37
2018-12-05T10:44:04.992Z,13.43
2018-12-05T10:46:45.143Z,13.30
2018-12-05T10:53:08.587Z,12.40
2018-12-05T10:55:46.083Z,12.93
2018-12-05T10:58:39.907Z,13.27
2018-12-05T11:01:50.097Z,13.07
2018-12-05T11:05:00.584Z,12.90
2018-12-05T11:08:11.428Z,12.77
2018-12-05T11:11:40.335Z,12.73
2018-12-05T11:15:05.641Z,13.33
2018-12-05T11:18:22.371Z,13.23
2018-12-05T11:21:51.840Z,11.47
2018-12-05T11:25:20.661Z,11.77
2018-12-05T11:31:30.734Z,11.90
2018-12-05T11:34:21.462Z,11.17
2018-12-05T11:37:12.460Z,12.43
2018-12-05T11:39:45.402Z,9.67
2018-12-05T11:43:08.951Z,10.67
2018-12-05T11:45:48.497Z,10.80
2018-12-05T11:48:59.478Z,10.70
2018-12-05T11:58:37.269Z,11.00
2018-12-05T12:01:29.900Z,10.50
2018-12-05T12:04:40.258Z,10.77
2018-12-05T12:07:31.394Z,11.03
2018-12-05T12:13:39.877Z,10.93
2018-12-05T12:26:20.831Z,10.77
2018-12-05T12:29:12.254Z,11.53
2018-12-05T12:31:56.740Z,11.30
2018-12-05T12:34:48.042Z,11.70
2018-12-05T12:41:29.531Z,12.13
2018-12-05T12:44:21.272Z,13.30
2018-12-05T12:50:28.535Z,9.30
2018-12-05T12:53:53.609Z,7.63
2018-12-05T12:56:31.674Z,7.90
2018-12-05T12:59:42.800Z,6.80
2018-12-05T13:02:53.372Z,6.80
2018-12-05T13:06:16.197Z,7.73
2018-12-05T13:08:57.409Z,6.77
2018-12-05T13:12:26.670Z,7.70
2018-12-05T13:15:37.820Z,7.07
2018-12-05T13:19:00.236Z,6.60
2018-12-05T13:21:59.118Z,6.53
2018-12-05T13:25:10.717Z,7.37
2018-12-05T13:28:01.566Z,7.50
2018-12-05T13:30:52.591Z,12.70
2018-12-05T13:33:43.313Z,31.20
2018-12-05T13:36:35.634Z,22.33
2018-12-05T13:39:26.631Z,21.93
2018-12-05T13:45:34.011Z,7.90
2018-12-05T13:48:25.673Z,8.30
2018-12-05T13:57:31.322Z,9.27
2018-12-05T14:00:42.660Z,9.10
2018-12-05T14:03:34.179Z,8.60
2018-12-05T14:06:44.525Z,8.60
2018-12-05T14:09:55.432Z,8.87
2018-12-05T14:12:47.781Z,10.87
2018-12-05T14:15:59.695Z,12.33
2018-12-05T14:18:51.182Z,12.87
2018-12-05T14:21:41.958Z,11.07
2018-12-05T14:24:33.033Z,12.33
2018-12-05T14:27:24.627Z,10.83
2018-12-05T14:34:03.786Z,9.87
2018-12-05T14:36:55.486Z,10.20
2018-12-05T14:43:17.831Z,11.27
2018-12-05T14:46:28.330Z,13.43
2018-12-05T14:49:39.208Z,13.70
2018-12-05T14:52:30.494Z,14.63
2018-12-05T14:55:22.102Z,13.97
2018-12-05T14:58:12.969Z,19.97
2018-12-05T15:01:25.000Z,16.13
2018-12-05T15:11:32.031Z,10.90
2018-12-05T15:14:37.213Z,12.00
2018-12-05T15:20:52.507Z,12.33
2018-12-05T15:24:02.836Z,16.80
2018-12-05T15:26:53.880Z,21.27
2018-12-05T15:30:03.839Z,18.17
2018-12-05T15:33:14.149Z,15.67
2018-12-05T15:36:05.593Z,14.70
2018-12-05T15:39:15.732Z,12.60
2018-12-05T15:45:05.092Z,11.90
2018-12-05T15:54:09.125Z,12.17
2018-12-05T15:56:59.897Z,16.27
2018-12-05T15:59:51.123Z,15.00
2018-12-05T16:02:53.960Z,17.93
2018-12-05T16:05:33.391Z,14.80
2018-12-05T16:08:46.034Z,13.83
2018-12-05T16:11:36.792Z,8.87
2018-12-05T16:14:28.413Z,8.60
2018-12-05T16:17:19.133Z,8.60
2018-12-05T16:20:10.991Z,7.93
2018-12-05T16:23:02.617Z,7.57
2018-12-05T16:26:12.554Z,7.80
2018-12-05T16:29:22.597Z,9.03
2018-12-05T16:32:32.959Z,7.43
2018-12-05T16:45:48.879Z,11.90
2018-12-05T16:55:12.785Z,6.90
2018-12-05T16:58:04.037Z,5.23
2018-12-05T17:01:27.638Z,5.50
2018-12-05T17:04:07.929Z,5.07
2018-12-05T17:06:59.071Z,5.23
2018-12-05T17:09:49.832Z,4.57
2018-12-05T17:12:40.512Z,4.73
2018-12-05T17:15:51.597Z,4.80
2018-12-05T17:19:03.028Z,4.97
2018-12-05T17:21:54.481Z,5.10
2018-12-05T17:24:45.713Z,4.83
2018-12-05T17:27:37.681Z,4.70
2018-12-05T17:30:47.860Z,4.67
2018-12-05T17:37:16.220Z,4.03
2018-12-05T17:40:07.828Z,4.57
2018-12-05T17:42:58.502Z,4.77
2018-12-05T17:46:09.188Z,4.13
2018-12-05T17:49:00.980Z,4.10
2018-12-05T17:55:02.925Z,3.83
2018-12-05T17:58:13.234Z,3.70
2018-12-05T18:01:03.901Z,3.80
2018-12-05T18:03:56.201Z,4.10
2018-12-05T18:07:09.196Z,4.47
2018-12-05T18:10:00.024Z,4.00
2018-12-05T18:16:21.916Z,4.57
2018-12-05T18:25:47.778Z,3.43
2018-12-05T18:28:39.507Z,4.07
2018-12-05T18:31:30.443Z,3.47
2018-12-05T18:43:52.789Z,3.97
2018-12-05T18:46:46.925Z,3.90
2018-12-05T18:49:38.126Z,4.10
2018-12-05T18:52:28.820Z,6.23
2018-12-05T18:55:20.693Z,3.77
2018-12-05T18:58:11.550Z,3.77
2018-12-05T19:01:02.325Z,3.40
2018-12-05T19:07:03.417Z,4.53
2018-12-05T19:10:12.961Z,5.17
2018-12-05T19:13:03.707Z,4.33
2018-12-05T19:16:15.124Z,4.33
2018-12-05T19:19:25.691Z,4.37
2018-12-05T19:22:17.639Z,4.57
2018-12-05T19:28:06.449Z,4.03
2018-12-05T19:30:57.162Z,4.10
2018-12-05T19:33:49.052Z,4.33
2018-12-05T19:36:39.740Z,4.20
2018-12-05T19:39:37.843Z,5.70
2018-12-05T19:45:44.679Z,5.70
2018-12-05T19:48:54.327Z,4.87
2018-12-05T19:52:04.763Z,4.33
2018-12-05T19:54:56.580Z,4.60
2018-12-05T19:58:08.272Z,5.00
2018-12-05T20:00:59.272Z,4.60
2018-12-05T20:04:10.225Z,4.50
2018-12-05T20:07:01.887Z,4.37
2018-12-05T20:09:53.457Z,4.67
2018-12-05T20:13:03.442Z,5.07
2018-12-05T20:15:54.504Z,5.40
2018-12-05T20:18:57.256Z,5.03
2018-12-05T20:21:36.780Z,5.30
2018-12-05T20:24:27.551Z,5.30
2018-12-05T20:27:37.946Z,5.70
2018-12-05T20:31:00.265Z,5.70
2018-12-05T20:33:39.755Z,5.70
2018-12-05T20:36:30.887Z,5.23
2018-12-05T20:39:40.413Z,5.73
2018-12-05T20:42:31.171Z,5.33
2018-12-05T20:45:21.909Z,5.53
2018-12-05T20:48:13.953Z,5.90
2018-12-05T20:51:28.337Z,6.07
2018-12-05T20:54:40.043Z,5.73
2018-12-05T20:57:49.375Z,5.67
2018-12-05T21:00:42.995Z,5.57
2018-12-05T21:04:11.454Z,6.00
2018-12-05T21:16:59.272Z,5.70
2018-12-05T21:20:25.873Z,6.27
2018-12-05T21:23:23.713Z,6.20
2018-12-05T21:26:34.108Z,6.33
2018-12-05T21:29:25.673Z,6.87
2018-12-05T21:32:37.134Z,6.70
2018-12-05T21:35:47.844Z,6.43
2018-12-05T21:38:59.645Z,7.47
2018-12-05T21:44:55.988Z,7.33
2018-12-05T21:50:44.320Z,7.23
2018-12-05T21:53:56.423Z,8.07
2018-12-05T21:56:48.976Z,8.03
2018-12-05T22:00:01.100Z,8.20
2018-12-05T22:06:15.955Z,8.40
2018-12-05T22:09:11.697Z,7.90
2018-12-05T22:12:53.735Z,7.87
2018-12-05T22:18:27.213Z,7.87
2018-12-05T22:21:20.026Z,7.70
2018-12-05T22:31:00.705Z,8.27
2018-12-05T22:36:57.789Z,7.93
2018-12-05T22:39:50.720Z,8.20
2018-12-05T22:42:42.920Z,7.73
2018-12-05T22:49:05.576Z,7.47
2018-12-05T22:51:57.107Z,7.03
2018-12-05T22:54:49.705Z,7.47
2018-12-05T22:57:41.942Z,7.43
2018-12-05T23:03:42.847Z,7.93
2018-12-05T23:06:53.748Z,8.43
2018-12-05T23:09:45.742Z,7.27
2018-12-05T23:12:37.486Z,7.60
2018-12-05T23:15:46.699Z,7.07
2018-12-05T23:18:21.858Z,7.03
2018-12-05T23:24:28.645Z,7.53
2018-12-05T23:27:20.350Z,6.80
2018-12-05T23:30:14.319Z,7.30
2018-12-05T23:33:25.391Z,6.47
2018-12-05T23:36:35.408Z,6.87
2018-12-05T23:39:27.193Z,6.10
2018-12-05T23:42:18.789Z,7.33
2018-12-05T23:45:24.191Z,6.40
2018-12-05T23:48:22.747Z,6.97
2018-12-05T23:51:14.757Z,6.37
2018-12-05T23:57:23.394Z,6.03
